Time;durP1;ratioP1;P1;durP2;ratioP2;P2;SDS_P1;SDS_P2;PMS_P1;PMS_P2;Temp;Humidity;BMP_temperature;BMP_pressure;BME280_temperature;BME280_humidity;BME280_pressure;Samples;Min_cycle;Max_cycle;Signal;HPM_P1;HPM_P2
2021/07/21 00:01:23;;;;;;;8.32;3.85;;;17.50;91.80;;;;;;5957482;39;20040;-72
2021/07/21 00:05:27;;;;;;;5.45;3.50;;;17.50;91.60;;;;;;5957182;39;20485;-72
2021/07/21 00:09:29;;;;;;;7.28;3.38;;;17.40;91.80;;;;;;5966371;39;20040;-72
2021/07/21 00:13:35;;;;;;;6.78;3.33;;;17.40;91.70;;;;;;5958629;39;20072;-72
2021/07/21 00:17:38;;;;;;;7.20;3.63;;;17.30;91.50;;;;;;5957700;39;20055;-72
2021/07/21 00:21:40;;;;;;;7.28;3.30;;;17.40;91.70;;;;;;5967430;39;20101;-71
2021/07/21 00:25:42;;;;;;;8.82;4.32;;;17.20;91.70;;;;;;5963218;39;20060;-72
2021/07/21 00:29:44;;;;;;;;;;;17.10;91.60;;;;;;5948848;39;20044;-72
2021/07/21 00:33:48;;;;;;;8.83;3.80;;;17.00;90.70;;;;;;5953246;39;20279;-71
2021/07/21 00:37:51;;;;;;;6.88;2.95;;;16.90;91.60;;;;;;5949638;39;20798;-71
2021/07/21 00:41:54;;;;;;;8.75;3.42;;;16.90;91.60;;;;;;5950993;39;20051;-71
2021/07/21 00:45:58;;;;;;;8.27;3.28;;;16.90;91.60;;;;;;5952841;39;20044;-72
2021/07/21 00:50:01;;;;;;;6.18;3.58;;;16.90;91.60;;;;;;5952310;39;20032;-72
2021/07/21 00:54:03;;;;;;;6.38;3.17;;;16.80;91.70;;;;;;5960328;39;20068;-72
2021/07/21 00:58:06;;;;;;;7.90;3.70;;;16.80;91.80;;;;;;5951352;39;20044;-72
2021/07/21 01:02:09;;;;;;;7.97;3.47;;;16.80;91.80;;;;;;5953581;39;20052;-72
2021/07/21 01:06:14;;;;;;;8.88;3.38;;;16.70;91.70;;;;;;5950621;39;20529;-72
2021/07/21 01:10:18;;;;;;;7.90;4.13;;;16.70;91.70;;;;;;5954149;39;20327;-71
2021/07/21 01:14:41;;;;;;;7.22;3.72;;;16.70;91.80;;;;;;5934737;39;20052;-72
2021/07/21 01:18:51;;;;;;;9.50;4.10;;;16.60;91.80;;;;;;5939324;39;20090;-72
2021/07/21 01:23:08;;;;;;;6.18;3.60;;;16.60;91.80;;;;;;5949263;39;20247;-71
2021/07/21 01:27:19;;;;;;;7.45;3.78;;;16.60;91.70;;;;;;5949004;39;20047;-71
2021/07/21 01:31:25;;;;;;;;;;;16.60;91.80;;;;;;5954238;39;20055;-71
2021/07/21 01:35:35;;;;;;;9.25;3.60;;;16.50;90.80;;;;;;5943705;39;19932;-71
2021/07/21 01:39:44;;;;;;;9.65;4.18;;;16.50;91.80;;;;;;5954226;39;20414;-71
2021/07/21 01:43:49;;;;;;;11.07;4.47;;;16.50;91.80;;;;;;5958283;39;20063;-72
2021/07/21 01:47:52;;;;;;;9.50;4.30;;;16.50;92.00;;;;;;5968242;39;20055;-71
2021/07/21 01:52:21;;;;;;;11.55;4.53;;;16.50;92.00;;;;;;5954192;39;20096;-72
2021/07/21 01:56:25;;;;;;;10.63;4.88;;;16.50;91.80;;;;;;5961730;39;20464;-71
2021/07/21 02:00:29;;;;;;;9.25;4.88;;;16.50;92.10;;;;;;5952698;39;20042;-71
2021/07/21 02:04:34;;;;;;;8.75;4.55;;;16.50;92.30;;;;;;5950580;39;20040;-71
2021/07/21 02:08:37;;;;;;;7.75;3.90;;;16.50;92.20;;;;;;5958362;39;20916;-72
2021/07/21 02:13:07;;;;;;;10.70;5.20;;;16.40;92.20;;;;;;5949180;39;20054;-72
2021/07/21 02:17:16;;;;;;;8.77;5.05;;;16.50;92.20;;;;;;5963608;39;20048;-73
2021/07/21 02:21:22;;;;;;;10.90;4.65;;;16.40;92.40;;;;;;5970421;39;20060;-72
2021/07/21 02:25:28;;;;;;;9.65;4.78;;;16.50;92.40;;;;;;5953698;39;20068;-73
2021/07/21 02:29:30;;;;;;;8.52;4.57;;;16.50;92.40;;;;;;5960339;39;20072;-72
2021/07/21 02:33:43;;;;;;;11.50;4.93;;;16.40;92.40;;;;;;5968418;39;20063;-74
2021/07/21 02:37:51;;;;;;;10.50;4.82;;;16.40;92.40;;;;;;5944457;39;20036;-72
2021/07/21 02:41:54;;;;;;;14.90;5.88;;;16.40;92.50;;;;;;5958783;39;20324;-71
2021/07/21 02:45:56;;;;;;;13.18;5.82;;;16.20;92.40;;;;;;5957799;39;20119;-72
2021/07/21 02:50:00;;;;;;;11.35;5.28;;;16.30;92.60;;;;;;5960048;39;20051;-72
2021/07/21 02:54:54;;;;;;;13.63;4.82;;;16.30;92.60;;;;;;5959592;39;20506;-72
2021/07/21 02:59:03;;;;;;;11.35;5.20;;;16.30;92.20;;;;;;5944821;39;20046;-72
2021/07/21 03:03:09;;;;;;;10.32;5.43;;;16.20;92.70;;;;;;5958710;39;20079;-72
2021/07/21 03:07:17;;;;;;;10.90;5.13;;;16.20;92.70;;;;;;5970689;39;20048;-73
2021/07/21 03:11:21;;;;;;;8.18;4.80;;;16.10;92.70;;;;;;5962204;39;20058;-73
2021/07/21 03:15:29;;;;;;;8.90;4.82;;;16.10;93.00;;;;;;5960606;39;20047;-73
2021/07/21 03:19:34;;;;;;;8.93;4.80;;;16.10;92.70;;;;;;5959517;39;20042;-74
2021/07/21 03:23:43;;;;;;;12.05;4.80;;;16.10;92.70;;;;;;5971297;39;20052;-72
2021/07/21 03:28:05;;;;;;;12.27;5.07;;;16.00;92.80;;;;;;5968649;39;20055;-72
2021/07/21 03:32:13;;;;;;;8.85;4.40;;;16.00;92.90;;;;;;5969398;39;20412;-72
2021/07/21 03:36:18;;;;;;;8.55;4.75;;;16.00;92.90;;;;;;5968884;39;20078;-72
2021/07/21 03:40:42;;;;;;;9.63;4.78;;;16.00;93.00;;;;;;5953719;39;20355;-72
2021/07/21 03:45:01;;;;;;;11.20;4.75;;;16.00;93.00;;;;;;5950891;39;20074;-71
2021/07/21 03:49:03;;;;;;;8.18;4.32;;;16.00;93.00;;;;;;5951812;39;20239;-71
2021/07/21 03:53:36;;;;;;;9.63;4.97;;;16.00;93.10;;;;;;5957169;39;20039;-71
2021/07/21 03:57:39;;;;;;;8.43;4.30;;;16.00;93.10;;;;;;5960453;39;20106;-71
2021/07/21 04:01:43;;;;;;;11.23;4.88;;;16.00;93.20;;;;;;5967433;39;20354;-72
2021/07/21 04:05:46;;;;;;;9.88;4.50;;;16.00;93.20;;;;;;5959396;39;20427;-72
2021/07/21 04:09:52;;;;;;;9.23;4.78;;;16.00;93.30;;;;;;5959467;39;20052;-71
2021/07/21 04:13:57;;;;;;;9.73;5.03;;;16.00;93.30;;;;;;5960150;39;20057;-72
2021/07/21 04:18:26;;;;;;;8.55;4.53;;;16.10;93.20;;;;;;5968470;39;20160;-72
2021/07/21 04:22:29;;;;;;;10.40;4.85;;;16.00;93.20;;;;;;5959085;39;20075;-72
2021/07/21 04:26:32;;;;;;;8.50;4.25;;;16.00;93.20;;;;;;5959869;39;20078;-73
2021/07/21 04:30:40;;;;;;;9.07;4.55;;;16.10;93.20;;;;;;5948796;39;20144;-72
2021/07/21 04:34:45;;;;;;;10.95;4.63;;;16.00;93.20;;;;;;5957268;39;20514;-73
2021/07/21 04:38:49;;;;;;;10.35;4.53;;;16.10;93.10;;;;;;5966228;39;20079;-73
2021/07/21 04:43:11;;;;;;;10.23;4.80;;;15.90;93.10;;;;;;5965112;39;20054;-72
2021/07/21 04:47:13;;;;;;;8.35;4.55;;;16.10;93.10;;;;;;5958920;39;20032;-72
2021/07/21 04:51:22;;;;;;;12.15;5.20;;;16.10;93.20;;;;;;5967216;39;20333;-73
2021/07/21 04:55:31;;;;;;;9.98;4.95;;;16.10;93.10;;;;;;5957811;39;20055;-73
2021/07/21 04:59:34;;;;;;;13.98;6.20;;;16.10;93.20;;;;;;5959316;39;20048;-72
2021/07/21 05:03:37;;;;;;;13.45;5.07;;;16.10;93.10;;;;;;5947883;39;20078;-71
2021/07/21 05:07:42;;;;;;;10.40;5.30;;;16.10;93.10;;;;;;5965479;39;20048;-72
2021/07/21 05:11:51;;;;;;;16.63;5.68;;;16.10;93.00;;;;;;5956051;39;20132;-72
2021/07/21 05:15:53;;;;;;;12.30;5.32;;;16.20;93.00;;;;;;5956744;39;20136;-72
2021/07/21 05:19:57;;;;;;;16.40;6.25;;;16.20;92.90;;;;;;5956583;39;20043;-72
2021/07/21 05:24:04;;;;;;;14.95;7.20;;;16.30;92.90;;;;;;5965288;39;20315;-73
2021/07/21 05:28:09;;;;;;;16.30;6.60;;;16.40;92.70;;;;;;5958878;39;20051;-72
2021/07/21 05:32:11;;;;;;;12.73;6.30;;;16.50;92.70;;;;;;5969763;39;20036;-72
2021/07/21 05:36:39;;;;;;;10.77;6.72;;;16.50;92.60;;;;;;5961153;39;20050;-72
2021/07/21 05:40:49;;;;;;;16.13;7.43;;;16.60;92.40;;;;;;5961508;39;20061;-71
2021/07/21 05:44:54;;;;;;;21.02;7.28;;;16.60;92.40;;;;;;5970307;39;20040;-72
2021/07/21 05:48:56;;;;;;;12.70;7.28;;;16.60;92.50;;;;;;5960161;39;20229;-72
2021/07/21 05:53:09;;;;;;;11.90;7.03;;;16.60;92.40;;;;;;5969526;39;20061;-73
2021/07/21 05:57:17;;;;;;;10.80;6.97;;;16.70;92.40;;;;;;5959081;39;20047;-72
2021/07/21 06:01:35;;;;;;;17.25;7.30;;;16.70;92.30;;;;;;5968594;39;20063;-72
2021/07/21 06:05:39;;;;;;;12.63;7.50;;;16.70;92.10;;;;;;5962693;39;20367;-72
2021/07/21 06:10:01;;;;;;;11.73;7.95;;;16.80;92.00;;;;;;5970633;39;20124;-73
2021/07/21 06:14:14;;;;;;;19.95;7.85;;;16.90;91.90;;;;;;5963128;39;20474;-75
2021/07/21 06:18:16;;;;;;;11.63;7.40;;;17.00;92.20;;;;;;5967861;39;20035;-75
2021/07/21 06:22:20;;;;;;;18.05;8.32;;;17.00;91.70;;;;;;5975591;39;20060;-75
2021/07/21 06:26:35;;;;;;;33.70;10.27;;;17.10;91.70;;;;;;5972915;39;20671;-75
2021/07/21 06:31:05;;;;;;;15.38;7.93;;;17.30;91.60;;;;;;5964135;39;20043;-75
2021/07/21 06:35:10;;;;;;;10.43;6.72;;;17.30;91.50;;;;;;5966437;39;20101;-75
2021/07/21 06:39:13;;;;;;;11.43;6.53;;;17.40;91.40;;;;;;5959003;39;20047;-75
2021/07/21 06:43:17;;;;;;;10.75;6.40;;;17.40;91.20;;;;;;5959967;39;20088;-75
2021/07/21 06:47:35;;;;;;;10.70;6.63;;;17.50;91.20;;;;;;5972204;39;20052;-75
2021/07/21 06:51:52;;;;;;;9.18;6.18;;;17.60;91.00;;;;;;5961840;39;20512;-75
2021/07/21 06:56:01;;;;;;;9.68;6.07;;;17.60;91.10;;;;;;5969238;39;20076;-75
2021/07/21 07:00:06;;;;;;;10.30;5.72;;;17.60;91.10;;;;;;5955691;39;20088;-75
2021/07/21 07:04:28;;;;;;;12.77;6.30;;;18.00;91.30;;;;;;5974269;39;20058;-75
2021/07/21 07:09:09;;;;;;;7.93;5.07;;;17.80;91.00;;;;;;5975817;39;20670;-74
2021/07/21 07:13:43;;;;;;;7.88;5.03;;;17.80;90.90;;;;;;5957375;39;20058;-76
2021/07/21 07:17:46;;;;;;;;;;;17.90;90.90;;;;;;5962401;39;20100;-75
2021/07/21 07:21:48;;;;;;;5.25;3.70;;;17.90;91.00;;;;;;5962244;39;19982;-76
2021/07/21 07:25:50;;;;;;;;;;;18.00;90.50;;;;;;5963579;39;20060;-76
2021/07/21 07:29:52;;;;;;;7.07;3.92;;;18.00;90.70;;;;;;5961245;39;20433;-76
2021/07/21 07:33:53;;;;;;;;;;;18.00;90.60;;;;;;5962086;39;20055;-75
2021/07/21 07:37:55;;;;;;;10.33;4.97;;;18.00;90.80;;;;;;5962188;39;19950;-75
2021/07/21 07:41:59;;;;;;;8.93;4.55;;;18.10;90.60;;;;;;5960260;39;20770;-75
2021/07/21 07:46:01;;;;;;;7.28;4.57;;;18.10;90.60;;;;;;5959856;39;20332;-75
2021/07/21 07:50:05;;;;;;;;;;;18.10;90.50;;;;;;5961341;39;20056;-75
2021/07/21 07:54:06;;;;;;;12.48;6.35;;;18.20;90.70;;;;;;5958952;39;19944;-75
2021/07/21 07:58:08;;;;;;;;;;;18.30;90.90;;;;;;5960922;39;20524;-76
2021/07/21 08:02:10;;;;;;;6.77;4.37;;;18.30;90.60;;;;;;5962338;39;19962;-76
2021/07/21 08:06:13;;;;;;;4.53;3.15;;;18.30;90.60;;;;;;5960342;39;20498;-76
2021/07/21 08:10:16;;;;;;;4.55;2.80;;;18.40;90.50;;;;;;5961356;39;20059;-75
2021/07/21 08:14:18;;;;;;;5.65;2.90;;;18.30;90.60;;;;;;5958184;39;20404;-75
2021/07/21 08:18:21;;;;;;;5.18;2.42;;;18.30;90.70;;;;;;5948547;39;20447;-75
2021/07/21 08:22:23;;;;;;;5.10;2.35;;;18.30;90.70;;;;;;5945758;39;20059;-77
2021/07/21 08:26:25;;;;;;;7.28;3.03;;;18.40;90.70;;;;;;5947275;39;20064;-76
2021/07/21 08:30:27;;;;;;;7.00;3.67;;;18.50;90.90;;;;;;5949716;39;20064;-75
2021/07/21 08:34:29;;;;;;;7.95;4.32;;;18.60;90.70;;;;;;5951252;39;20048;-75
2021/07/21 08:38:30;;;;;;;;;;;18.70;90.60;;;;;;5949797;39;20070;-75
2021/07/21 08:42:33;;;;;;;8.77;4.80;;;18.60;90.60;;;;;;5948742;39;19972;-75
2021/07/21 08:46:37;;;;;;;6.70;4.18;;;18.70;90.70;;;;;;5947770;39;20041;-76
2021/07/21 08:50:45;;;;;;;9.48;5.10;;;18.70;90.70;;;;;;5947353;39;20060;-76
2021/07/21 08:54:48;;;;;;;9.50;5.55;;;18.70;90.50;;;;;;5945995;39;20596;-76
2021/07/21 08:58:51;;;;;;;13.95;5.88;;;18.70;90.40;;;;;;5946008;39;20051;-76
2021/07/21 09:02:53;;;;;;;26.27;7.35;;;18.80;90.40;;;;;;5946394;39;20063;-76
2021/07/21 09:06:55;;;;;;;7.60;4.93;;;18.70;90.30;;;;;;5949223;39;20423;-75
2021/07/21 09:10:57;;;;;;;9.05;5.05;;;18.60;90.40;;;;;;5947860;39;20048;-76
2021/07/21 09:14:59;;;;;;;12.15;5.93;;;18.60;90.50;;;;;;5950913;39;20364;-76
2021/07/21 09:19:01;;;;;;;20.23;6.22;;;18.60;90.60;;;;;;5946090;39;20047;-75
2021/07/21 09:23:04;;;;;;;14.10;5.65;;;18.70;90.60;;;;;;5944845;39;20051;-75
2021/07/21 09:27:06;;;;;;;9.05;5.15;;;18.70;90.50;;;;;;5950226;39;20057;-76
2021/07/21 09:31:11;;;;;;;;;;;18.60;90.60;;;;;;5947074;39;20047;-76
2021/07/21 09:35:14;;;;;;;12.27;6.05;;;18.50;90.60;;;;;;5946383;39;20345;-76
2021/07/21 09:39:31;;;;;;;12.50;5.20;;;18.50;90.80;;;;;;5941741;39;20056;-76
2021/07/21 09:43:34;;;;;;;11.65;5.65;;;18.40;90.90;;;;;;5940460;39;20097;-76
2021/07/21 09:47:41;;;;;;;9.40;5.97;;;18.40;91.30;;;;;;5940331;39;20625;-76
2021/07/21 09:51:43;;;;;;;9.75;5.72;;;18.40;91.50;;;;;;5944269;39;21035;-76
2021/07/21 09:55:46;;;;;;;10.88;6.55;;;18.20;91.80;;;;;;5944841;39;20049;-76
2021/07/21 09:59:48;;;;;;;6.28;4.00;;;18.10;92.30;;;;;;5942575;39;20142;-76
2021/07/21 10:04:03;;;;;;;;;;;18.00;92.30;;;;;;5940584;39;20052;-76
2021/07/21 10:08:48;;;;;;;7.65;4.40;;;18.10;91.80;;;;;;5940569;39;19948;-75
2021/07/21 10:13:05;;;;;;;9.82;4.60;;;18.00;92.10;;;;;;5923403;39;20066;-76
2021/07/21 10:17:08;;;;;;;8.50;4.80;;;18.20;92.20;;;;;;5944959;39;20286;-76
2021/07/21 10:21:10;;;;;;;8.63;4.63;;;18.20;92.30;;;;;;5948458;39;20123;-76
2021/07/21 10:25:15;;;;;;;7.10;4.13;;;18.20;92.40;;;;;;5945008;39;20029;-78
2021/07/21 10:29:18;;;;;;;6.93;4.30;;;18.20;92.40;;;;;;5944349;39;20096;-77
2021/07/21 10:33:20;;;;;;;9.27;4.45;;;18.40;92.60;;;;;;5945317;39;20059;-76
2021/07/21 10:37:22;;;;;;;;;;;18.50;92.30;;;;;;5945053;39;20147;-75
2021/07/21 10:41:29;;;;;;;10.30;4.22;;;18.70;91.90;;;;;;5945682;39;20331;-76
2021/07/21 10:45:34;;;;;;;9.77;3.97;;;18.90;91.60;;;;;;5947375;39;20416;-76
2021/07/21 10:49:48;;;;;;;5.85;3.58;;;19.00;91.40;;;;;;5946238;39;20055;-76
2021/07/21 11:02:31;;;;;;;9.95;4.50;;;18.90;91.40;;;;;;5945072;39;20242;-76
2021/07/21 11:06:40;;;;;;;7.18;4.53;;;18.90;91.50;;;;;;5937675;39;20514;-76
2021/07/21 11:10:45;;;;;;;8.68;4.90;;;19.00;91.50;;;;;;5946727;39;20051;-75
2021/07/21 11:14:56;;;;;;;10.13;5.57;;;19.10;90.90;;;;;;5945275;39;20137;-76
2021/07/21 11:18:57;;;;;;;8.57;4.93;;;19.30;91.00;;;;;;5946770;39;20067;-75
2021/07/21 11:23:38;;;;;;;11.40;5.80;;;19.30;90.20;;;;;;5940119;39;20355;-76
2021/07/21 11:27:44;;;;;;;11.38;5.70;;;19.40;90.30;;;;;;5947700;39;20071;-75
2021/07/21 11:31:48;;;;;;;11.10;5.75;;;19.30;90.30;;;;;;5947819;39;20044;-75
2021/07/21 11:35:53;;;;;;;11.55;5.97;;;19.30;89.70;;;;;;5946847;39;20052;-75
2021/07/21 11:39:57;;;;;;;11.02;5.72;;;19.30;89.90;;;;;;5943736;39;20032;-76
2021/07/21 11:44:02;;;;;;;14.60;5.45;;;19.30;90.00;;;;;;5944559;39;20059;-76
2021/07/21 11:48:07;;;;;;;9.60;5.60;;;19.20;90.00;;;;;;5951006;39;20044;-75
2021/07/21 11:52:09;;;;;;;12.07;5.85;;;19.30;89.90;;;;;;5945273;39;20059;-75
2021/07/21 11:56:12;;;;;;;10.38;5.97;;;19.90;90.10;;;;;;5945885;39;20146;-75
2021/07/21 12:00:18;;;;;;;11.85;6.43;;;19.20;89.40;;;;;;5945439;39;20053;-74
2021/07/21 12:04:28;;;;;;;12.90;6.30;;;19.20;89.80;;;;;;5946672;39;20510;-75
2021/07/21 12:08:29;;;;;;;12.45;6.13;;;19.10;89.30;;;;;;5949129;39;20147;-75
2021/07/21 12:12:31;;;;;;;;;;;19.10;88.90;;;;;;5940671;39;20335;-75
2021/07/21 12:16:37;;;;;;;9.37;5.70;;;19.10;90.00;;;;;;5946281;39;19933;-76
2021/07/21 12:20:45;;;;;;;13.27;5.22;;;19.10;89.10;;;;;;5943282;39;20636;-77
2021/07/21 12:24:52;;;;;;;10.30;5.90;;;19.20;88.70;;;;;;5948707;39;21031;-76
2021/07/21 12:28:55;;;;;;;11.07;5.43;;;19.20;88.90;;;;;;5947566;39;20485;-76
2021/07/21 12:32:57;;;;;;;10.73;5.70;;;19.10;89.30;;;;;;5948812;39;20064;-75
2021/07/21 12:36:59;;;;;;;12.18;5.03;;;19.20;88.30;;;;;;5948135;39;20231;-76
2021/07/21 12:41:01;;;;;;;10.48;5.10;;;19.20;88.60;;;;;;5944972;39;20430;-76
2021/07/21 12:45:09;;;;;;;9.13;4.22;;;19.30;88.20;;;;;;5949729;39;20075;-76
2021/07/21 12:49:11;;;;;;;8.43;3.72;;;19.30;88.30;;;;;;5951545;39;20041;-76
2021/07/21 12:53:19;;;;;;;6.05;3.17;;;19.30;87.80;;;;;;5953377;39;20552;-76
2021/07/21 12:57:31;;;;;;;9.45;4.22;;;19.30;87.80;;;;;;5946502;39;20119;-77
2021/07/21 13:01:32;;;;;;;10.23;4.07;;;19.30;87.50;;;;;;5947787;39;20253;-76
2021/07/21 13:05:35;;;;;;;9.05;3.25;;;19.30;87.70;;;;;;5949367;39;20051;-76
2021/07/21 13:09:37;;;;;;;8.68;3.72;;;19.30;87.60;;;;;;5947424;39;20484;-76
2021/07/21 13:13:51;;;;;;;6.28;3.75;;;19.30;87.20;;;;;;5946738;39;20479;-76
2021/07/21 13:18:15;;;;;;;8.65;3.88;;;19.50;85.80;;;;;;5934137;39;20056;-73
2021/07/21 13:22:21;;;;;;;8.63;4.40;;;19.60;86.60;;;;;;5957848;39;20052;-74
2021/07/21 13:26:24;;;;;;;8.77;3.90;;;19.70;85.50;;;;;;5943216;39;20101;-74
2021/07/21 13:30:26;;;;;;;8.70;4.00;;;19.80;85.30;;;;;;5946329;39;20408;-74
2021/07/21 13:34:33;;;;;;;8.25;3.92;;;19.90;84.90;;;;;;5946646;39;20656;-73
2021/07/21 13:38:36;;;;;;;8.65;4.63;;;20.00;84.50;;;;;;5949458;39;20055;-74
2021/07/21 13:42:38;;;;;;;17.08;4.85;;;20.00;84.60;;;;;;5948657;39;20048;-77
2021/07/21 13:46:48;;;;;;;;;;;20.10;84.10;;;;;;5947939;39;20393;-74
2021/07/21 13:51:13;;;;;;;5.95;3.00;;;20.00;83.50;;;;;;5946904;39;19936;-74
2021/07/21 13:55:14;;;;;;;15.25;3.45;;;20.10;84.40;;;;;;5947781;39;20133;-70
2021/07/21 13:59:17;;;;;;;17.58;4.25;;;20.10;83.80;;;;;;5944183;39;20054;-72
2021/07/21 14:03:22;;;;;;;6.03;2.88;;;20.20;84.40;;;;;;5947114;39;20094;-72
2021/07/21 14:07:25;;;;;;;4.97;2.40;;;20.10;82.60;;;;;;5948933;39;20072;-72
2021/07/21 14:11:27;;;;;;;6.10;2.10;;;20.10;83.20;;;;;;5946514;39;20323;-72
2021/07/21 14:15:29;;;;;;;9.35;2.28;;;20.40;81.70;;;;;;5944199;39;20084;-72
2021/07/21 14:19:31;;;;;;;;;;;20.60;81.50;;;;;;5953888;39;20048;-72
2021/07/21 14:23:34;;;;;;;4.22;1.92;;;20.60;83.50;;;;;;5949901;39;20017;-72
2021/07/21 14:27:36;;;;;;;17.95;3.85;;;20.70;82.20;;;;;;5946595;39;20068;-72
2021/07/21 14:31:38;;;;;;;39.65;5.65;;;20.50;81.30;;;;;;5946838;39;20062;-73
2021/07/21 14:35:40;;;;;;;6.55;2.03;;;20.50;82.00;;;;;;5943385;39;20616;-72
2021/07/21 14:39:42;;;;;;;4.15;1.60;;;20.60;81.70;;;;;;5947637;39;20063;-73
2021/07/21 14:43:44;;;;;;;;;;;20.80;80.60;;;;;;5949282;39;20044;-73
2021/07/21 14:47:46;;;;;;;5.32;2.22;;;20.60;82.60;;;;;;5947184;39;19960;-73
2021/07/21 14:51:47;;;;;;;;;;;20.70;81.80;;;;;;5947016;39;20028;-73
2021/07/21 14:55:51;;;;;;;6.43;2.00;;;20.80;84.30;;;;;;5943150;39;20439;-72
2021/07/21 14:59:52;;;;;;;;;;;20.50;82.00;;;;;;5946603;39;20137;-72
2021/07/21 15:03:54;;;;;;;9.57;2.45;;;20.50;82.80;;;;;;5946073;39;20394;-73
2021/07/21 15:07:57;;;;;;;;;;;20.50;81.70;;;;;;5945111;39;20378;-72
2021/07/21 15:11:59;;;;;;;8.98;2.75;;;20.40;83.90;;;;;;5944936;39;19944;-73
2021/07/21 15:16:00;;;;;;;;;;;20.40;81.80;;;;;;5947747;39;20065;-72
2021/07/21 15:20:05;;;;;;;9.48;2.88;;;20.40;83.60;;;;;;5945804;39;19932;-73
2021/07/21 15:24:08;;;;;;;20.10;4.72;;;20.30;82.40;;;;;;5944257;39;20060;-72
2021/07/21 15:28:10;;;;;;;28.55;5.78;;;20.40;81.30;;;;;;5947751;39;20130;-73
2021/07/21 15:32:13;;;;;;;;;;;20.60;81.70;;;;;;5948113;39;20049;-73
2021/07/21 15:36:15;;;;;;;6.07;2.03;;;20.40;83.30;;;;;;5946579;39;19932;-72
2021/07/21 15:40:18;;;;;;;;;;;20.30;81.40;;;;;;5951032;39;20043;-72
2021/07/21 15:44:20;;;;;;;5.80;1.90;;;20.20;82.70;;;;;;5951406;39;20463;-73
2021/07/21 15:48:22;;;;;;;7.90;1.70;;;20.10;82.20;;;;;;5944208;39;20064;-72
2021/07/21 15:52:24;;;;;;;6.28;2.20;;;20.00;82.10;;;;;;5951560;39;20048;-73
2021/07/21 15:56:26;;;;;;;;;;;20.00;81.50;;;;;;5949232;39;20448;-73
2021/07/21 16:00:28;;;;;;;5.75;1.92;;;19.90;82.10;;;;;;5941042;39;19955;-72
2021/07/21 16:04:30;;;;;;;12.57;2.80;;;19.80;82.30;;;;;;5949457;39;20476;-73
2021/07/21 16:08:32;;;;;;;5.55;2.03;;;19.80;82.50;;;;;;5948168;39;20068;-73
2021/07/21 16:12:34;;;;;;;6.28;2.13;;;19.80;81.60;;;;;;5948233;39;20039;-72
2021/07/21 16:16:37;;;;;;;4.05;1.70;;;20.00;81.20;;;;;;5949017;39;20064;-73
2021/07/21 16:20:39;;;;;;;8.88;2.20;;;19.90;80.70;;;;;;5947967;39;20623;-72
2021/07/21 16:24:41;;;;;;;7.40;2.05;;;19.80;80.70;;;;;;5947003;39;20096;-73
2021/07/21 16:28:43;;;;;;;;;;;19.80;80.70;;;;;;5947286;39;20129;-73
2021/07/21 16:32:44;;;;;;;6.30;2.13;;;19.70;82.20;;;;;;5946405;39;19963;-72
2021/07/21 16:36:47;;;;;;;5.75;2.20;;;19.70;81.00;;;;;;5948371;39;20048;-72
2021/07/21 16:40:49;;;;;;;9.80;2.10;;;19.80;80.70;;;;;;5939831;39;20381;-72
2021/07/21 16:44:51;;;;;;;;;;;19.80;80.30;;;;;;5936514;39;20378;-73
2021/07/21 16:48:53;;;;;;;4.32;2.10;;;19.70;82.40;;;;;;5948818;39;19975;-72
2021/07/21 16:52:55;;;;;;;6.43;2.50;;;19.60;80.80;;;;;;5947374;39;20469;-73
2021/07/21 16:56:56;;;;;;;;;;;19.70;80.60;;;;;;5950518;39;20096;-73
2021/07/21 17:00:58;;;;;;;6.93;2.10;;;19.60;81.30;;;;;;5947932;39;19940;-72
2021/07/21 17:05:02;;;;;;;7.07;2.40;;;19.50;81.30;;;;;;5958298;39;20072;-72
2021/07/21 17:09:04;;;;;;;11.90;2.72;;;19.60;81.00;;;;;;5951138;39;20056;-72
2021/07/21 17:13:06;;;;;;;7.88;2.50;;;19.50;81.00;;;;;;5949466;39;20372;-72
2021/07/21 17:17:08;;;;;;;6.97;2.45;;;19.40;81.30;;;;;;5946534;39;20077;-73
2021/07/21 17:21:10;;;;;;;;;;;19.40;81.00;;;;;;5947025;39;20056;-72
2021/07/21 17:25:12;;;;;;;7.05;2.15;;;19.30;82.50;;;;;;5948208;39;19945;-73
2021/07/21 17:29:14;;;;;;;8.02;2.67;;;19.30;81.90;;;;;;5944870;39;20052;-73
2021/07/21 17:33:17;;;;;;;6.80;2.45;;;19.20;81.70;;;;;;5948612;39;20048;-73
2021/07/21 17:37:19;;;;;;;7.38;2.63;;;19.10;81.90;;;;;;5943895;39;20485;-72
2021/07/21 17:41:21;;;;;;;10.63;3.13;;;19.10;81.90;;;;;;5938356;39;20424;-72
2021/07/21 17:45:24;;;;;;;;;;;19.00;82.20;;;;;;5948547;39;20056;-75
2021/07/21 17:49:26;;;;;;;7.88;2.17;;;19.00;81.30;;;;;;5948797;39;19939;-75
2021/07/21 17:53:28;;;;;;;6.18;2.00;;;18.90;82.10;;;;;;5945828;39;20075;-75
2021/07/21 17:57:30;;;;;;;;;;;18.90;81.70;;;;;;5946260;39;20089;-75
2021/07/21 18:01:31;;;;;;;6.18;2.13;;;18.80;82.70;;;;;;5948242;39;19941;-74
2021/07/21 18:05:34;;;;;;;9.38;2.42;;;18.70;81.90;;;;;;5945673;39;20048;-75
2021/07/21 18:09:36;;;;;;;5.68;1.98;;;18.50;81.20;;;;;;5947917;39;20339;-75
2021/07/21 18:13:38;;;;;;;8.88;2.00;;;18.70;81.50;;;;;;5944268;39;20115;-75
2021/07/21 18:17:40;;;;;;;11.23;2.60;;;18.60;81.60;;;;;;5945220;39;20060;-75
2021/07/21 18:21:42;;;;;;;;;;;18.50;81.80;;;;;;5946434;39;20157;-75
2021/07/21 18:25:43;;;;;;;9.48;1.98;;;18.40;82.90;;;;;;5944813;39;20321;-75
2021/07/21 18:29:45;;;;;;;8.02;2.33;;;18.40;82.30;;;;;;5943633;39;20121;-75
2021/07/21 18:33:47;;;;;;;6.40;2.05;;;18.30;82.50;;;;;;5945694;39;20068;-75
2021/07/21 18:37:51;;;;;;;7.40;2.38;;;18.30;82.40;;;;;;5936015;39;20060;-75
2021/07/21 18:41:53;;;;;;;7.57;2.22;;;18.30;82.20;;;;;;5941293;39;20074;-75
2021/07/21 18:45:55;;;;;;;7.78;2.33;;;18.10;82.50;;;;;;5944523;39;20180;-74
2021/07/21 18:49:58;;;;;;;4.25;2.05;;;18.10;82.80;;;;;;5943964;39;20076;-74
2021/07/21 18:54:00;;;;;;;9.38;2.20;;;18.10;82.80;;;;;;5942956;39;20431;-75
2021/07/21 18:58:03;;;;;;;7.60;2.63;;;18.00;82.90;;;;;;5947092;39;20050;-74
2021/07/21 19:02:05;;;;;;;4.90;1.90;;;17.90;82.90;;;;;;5947955;39;20041;-75
2021/07/21 19:06:10;;;;;;;7.00;2.10;;;17.80;83.20;;;;;;5950278;39;20048;-73
2021/07/21 19:10:13;;;;;;;;;;;17.80;83.50;;;;;;5946680;39;20049;-73
2021/07/21 19:14:15;;;;;;;8.73;2.20;;;17.70;83.60;;;;;;5944610;39;19944;-74
2021/07/21 19:18:17;;;;;;;9.77;2.47;;;17.70;83.80;;;;;;5947359;39;20129;-73
2021/07/21 19:22:19;;;;;;;7.25;2.47;;;17.70;83.80;;;;;;5946006;39;20100;-73
2021/07/21 19:26:21;;;;;;;6.53;2.35;;;17.60;83.80;;;;;;5942924;39;20454;-73
2021/07/21 19:30:23;;;;;;;7.53;2.55;;;17.50;84.00;;;;;;5936812;39;20046;-74
2021/07/21 19:34:24;;;;;;;11.13;2.50;;;17.50;84.10;;;;;;5948122;40;20056;-74
2021/07/21 19:38:27;;;;;;;8.43;2.47;;;17.50;84.20;;;;;;5945614;39;20137;-73
2021/07/21 19:42:29;;;;;;;6.25;2.10;;;17.40;84.40;;;;;;5926767;39;20363;-73
2021/07/21 19:46:30;;;;;;;;;;;17.40;84.40;;;;;;5932310;39;20056;-74
2021/07/21 19:50:32;;;;;;;9.30;2.33;;;17.30;84.00;;;;;;5941426;39;20014;-75
2021/07/21 19:54:34;;;;;;;;;;;17.20;84.60;;;;;;5926190;40;20607;-73
2021/07/21 19:58:36;;;;;;;5.57;2.40;;;17.10;84.00;;;;;;5924236;40;20579;-74
2021/07/21 20:02:38;;;;;;;;;;;17.00;84.70;;;;;;5922886;40;20085;-73
2021/07/21 20:06:40;;;;;;;8.68;2.55;;;16.90;84.00;;;;;;5923458;40;19948;-73
2021/07/21 20:10:43;;;;;;;10.55;2.80;;;16.90;85.00;;;;;;5925000;40;20076;-73
2021/07/21 20:14:44;;;;;;;;;;;16.80;85.20;;;;;;5924918;40;20106;-73
2021/07/21 20:18:46;;;;;;;6.32;2.22;;;16.60;84.40;;;;;;5926248;40;19940;-73
2021/07/21 20:22:48;;;;;;;6.90;2.70;;;16.50;85.40;;;;;;5932172;39;20142;-72
2021/07/21 20:26:50;;;;;;;6.10;3.03;;;16.50;85.70;;;;;;5932255;39;20427;-73
2021/07/21 20:30:52;;;;;;;8.82;3.42;;;16.40;86.50;;;;;;5923048;40;20045;-73
2021/07/21 20:34:54;;;;;;;7.82;3.50;;;16.30;86.60;;;;;;5933721;39;20071;-73
2021/07/21 20:38:56;;;;;;;8.30;2.90;;;16.20;86.00;;;;;;5924901;40;20041;-72
2021/07/21 20:42:58;;;;;;;10.30;3.28;;;16.20;86.10;;;;;;5929279;40;20053;-73
2021/07/21 20:47:00;;;;;;;9.48;3.15;;;16.20;86.20;;;;;;5928846;39;20618;-74
2021/07/21 20:51:02;;;;;;;9.60;3.03;;;16.10;86.30;;;;;;5928707;40;20328;-73
2021/07/21 20:55:05;;;;;;;11.13;2.92;;;16.00;86.30;;;;;;5928079;40;20494;-74
2021/07/21 20:59:07;;;;;;;9.68;2.90;;;16.00;86.40;;;;;;5925420;40;20064;-73
2021/07/21 21:03:09;;;;;;;8.23;3.00;;;15.90;86.50;;;;;;5926561;39;20100;-73
2021/07/21 21:07:10;;;;;;;;;;;15.90;86.50;;;;;;5928070;40;20398;-74
2021/07/21 21:11:13;;;;;;;;;;;15.80;85.10;;;;;;5920403;40;19952;-74
2021/07/21 21:15:15;;;;;;;8.90;3.77;;;15.70;84.90;;;;;;5923565;40;19944;-73
2021/07/21 21:19:17;;;;;;;11.05;3.13;;;15.70;86.20;;;;;;5924035;39;20033;-75
2021/07/21 21:23:20;;;;;;;12.95;3.08;;;15.60;86.40;;;;;;5925953;40;20136;-73
2021/07/21 21:27:22;;;;;;;9.38;2.72;;;15.60;86.60;;;;;;5922691;39;20053;-73
2021/07/21 21:31:24;;;;;;;;;;;15.50;86.60;;;;;;5925373;40;20468;-74
2021/07/21 21:35:26;;;;;;;10.32;2.58;;;15.40;85.20;;;;;;5927104;40;19932;-73